ivan-susanin.com alexa rank chart, ivan-susanin.com alexa rank daily changes

ivan-susanin.com alexa rank chart, ivan-susanin.com alexa rank daily changes

ivan-susanin.com
Actual rank:
778 929

RANK HISTORY

Date Rank Diff
2017/10/23 778 929 -4 332
2017/10/22 783 261 +14 348
2017/10/21 768 913 -20 455
2017/10/20 789 368 -39 904
2017/10/19 829 272 -580
2017/10/18 829 852 +1 835
2017/10/17 828 017 -30 156
2017/10/16 858 173 -10 077
2017/10/14 868 250 +8 054
2017/10/13 860 196 -7 624
2017/10/12 867 820 -3 655
2017/10/11 871 475 -8 236
2017/10/10 879 711 -9 668
2017/10/09 889 379 -22 636
2017/10/08 912 015 +2 936
2017/10/07 909 079 -7 532
2017/10/06 916 611 +2 604
2017/10/05 914 007 -5 435
2017/10/04 919 442 +30 886
2017/10/03 888 556 -3 414
2017/10/02 891 970 +41 901
2017/10/01 850 069 +70 017
2017/09/30 780 052 -5 011
2017/09/29 785 063 +9 516
2017/09/28 775 547 -251
2017/09/27 775 798 -18 337
2017/09/26 794 135 -3 988
2017/09/25 798 123 -12 399
2017/09/24 810 522 +18 212
2017/09/23 792 310 +28 068
2017/09/22 764 242 +37 266
2017/09/20 726 976 -3 021
2017/09/19 729 997 -3 331
2017/09/18 733 328 -3 317
2017/09/17 736 645 +11 135
2017/09/16 725 510 -13 560
2017/09/15 739 070 +389
2017/09/14 738 681 +1 066
2017/09/13 737 615 +29 005
2017/09/12 708 610 +3 333
2017/09/11 705 277 +978
2017/09/10 704 299 -1 123
2017/09/09 705 422 +380
2017/09/08 705 042 +20 620
2017/09/07 684 422 +7 883
2017/09/06 676 539 +3 791
2017/09/05 672 748 -2 478
2017/09/04 675 226 -16 990
2017/09/03 692 216 +3 828
2017/09/02 688 388 -9 453
2017/09/01 697 841 +471
2017/08/31 697 370 -55 928
2017/08/30 753 298 -8 528
2017/08/29 761 826 +4 062
2017/08/28 757 764 +176 803
2017/08/27 580 961 +7 695
2017/08/26 573 266 -1 286
2017/08/25 574 552 +1 400
2017/08/24 573 152

WIDGET FOR YOUR SITE

DOMAINS WITH THE NEAREST RANK

Domain Rank
pulselive.ug 778 924
nichiou.co.jp 778 925
ford.hr 778 926
spinnakernordic.com 778 927
desi-sex.me 778 928
ivan-susanin.com 778 929
scienceofspeed.com 778 930
listcrux.co 778 931
funimationnow.com 778 932
sallyforth.com 778 933
supercolor.com.tw 778 934

DOMAINS WITH THE NEAREST RANK BY TLD .com

Domain Rank
bimebazar.com 778 915
bikosports.com 778 917
creareblogsitiwp.com 778 920
zyn22.com 778 923
spinnakernordic.com 778 927
ivan-susanin.com 778 929
scienceofspeed.com 778 930
funimationnow.com 778 932
sallyforth.com 778 933
dieselperformance.com 778 935
redotheweb.com 778 936